ADDS METAR Data INFO
IDs: Format: Raw Decoded Include TAF

Data at: 2254 UTC 22 Jun 2018

METAR for:KORL (Orlando/Executive, FL, US)
Text:KORL 222240Z 05008KT 3SM TSRA BR SCT070 SCT085 BKN110 24/23 A2993 RMK AO2 LTG DSNT N-SE P0010 T02390228 $
Temperature: 23.9°C ( 75°F)
Dewpoint: 22.8°C ( 73°F) [RH = 94%]
Pressure (altimeter):29.93 inches Hg (1013.6 mb)
Winds:from the NE (50 degrees) at 9 MPH (8 knots; 4.1 m/s)
Visibility: 3 sm ( 5 km)
Ceiling:11000 feet AGL
Clouds: scattered clouds at 7000 feet AGL, scattered clouds at 8500 feet AGL, broken clouds at 11000 feet AGL
Weather:TSRA BR (rain associated with thunderstorm(s), mist)
QC Flag:SOME DATA ABOVE MAY BE INACCURATE!!!"$" is an indication the sensor requires maintenance.